Time;durP1;ratioP1;P1;durP2;ratioP2;P2;SDS_P1;SDS_P2;PMS_P1;PMS_P2;Temp;Humidity;BMP_temperature;BMP_pressure;BME280_temperature;BME280_humidity;BME280_pressure;Samples;Min_cycle;Max_cycle;Signal;HPM_P1;HPM_P2
2022/10/10 00:00:31;;;;;;;3.13;1.95;;;;;;;-141.23;100.00;62281.09;5058968;28;20048;-71
2022/10/10 00:02:57;;;;;;;4.25;2.08;;;;;;;-141.23;100.00;62281.09;5042667;28;20048;-71
2022/10/10 00:05:23;;;;;;;2.75;2.17;;;;;;;-141.23;100.00;62281.09;5043070;28;20416;-71
2022/10/10 00:07:48;;;;;;;4.40;2.28;;;;;;;-141.23;100.00;62281.09;5060295;28;20178;-71
2022/10/10 00:10:14;;;;;;;4.40;2.13;;;;;;;-141.23;100.00;62281.09;5042565;28;20043;-71
2022/10/10 00:12:40;;;;;;;2.88;1.70;;;;;;;-141.23;100.00;62281.09;5059363;28;20048;-71
2022/10/10 00:15:07;;;;;;;4.00;2.05;;;;;;;-141.23;100.00;62281.09;5075558;28;20046;-72
2022/10/10 00:17:32;;;;;;;4.80;2.03;;;;;;;-141.23;100.00;62281.09;5042439;28;20074;-70
2022/10/10 00:19:58;;;;;;;4.60;1.95;;;;;;;-141.23;100.00;62281.09;5058622;28;20470;-71
2022/10/10 00:22:24;;;;;;;4.68;1.88;;;;;;;-141.23;100.00;62281.09;5041897;28;20121;-71
2022/10/10 00:24:50;;;;;;;3.53;2.10;;;;;;;-141.23;100.00;62281.09;5039004;28;20143;-71
2022/10/10 00:27:15;;;;;;;3.67;1.90;;;;;;;-141.23;100.00;62281.09;5038559;28;20040;-72
2022/10/10 00:29:42;;;;;;;2.80;2.08;;;;;;;-141.23;100.00;62281.09;5088533;28;20072;-72
2022/10/10 00:32:07;;;;;;;3.60;2.03;;;;;;;-141.23;100.00;62281.09;5039428;28;20132;-72
2022/10/10 00:34:34;;;;;;;3.08;1.75;;;;;;;-141.23;100.00;62281.09;5071415;28;20048;-72
2022/10/10 00:36:59;;;;;;;3.85;1.83;;;;;;;-141.23;100.00;62281.09;5088560;28;20067;-72
2022/10/10 00:39:26;;;;;;;6.70;1.92;;;;;;;-141.23;100.00;62281.09;5038236;28;20137;-72
2022/10/10 00:41:52;;;;;;;3.55;2.40;;;;;;;-141.23;100.00;62281.09;5071446;28;20071;-74
2022/10/10 00:44:19;;;;;;;4.43;2.00;;;;;;;-141.23;100.00;62281.09;5038394;28;20137;-72
2022/10/10 00:46:45;;;;;;;3.72;2.00;;;;;;;-141.23;100.00;62281.09;5038250;28;20032;-72
2022/10/10 00:49:18;;;;;;;5.20;2.17;;;;;;;-141.23;100.00;62281.09;5055119;28;20230;-71
2022/10/10 00:51:49;;;;;;;3.78;2.10;;;;;;;-141.23;100.00;62281.09;5038341;28;20043;-72
2022/10/10 00:54:16;;;;;;;4.22;2.10;;;;;;;-141.23;100.00;62281.09;5035416;28;20529;-72
2022/10/10 00:57:00;;;;;;;4.80;2.10;;;;;;;-141.23;100.00;62281.09;5050189;28;20134;-72
2022/10/10 00:59:32;;;;;;;6.20;2.17;;;;;;;-141.23;100.00;62281.09;5017919;28;20136;-72
2022/10/10 01:01:58;;;;;;;4.75;2.40;;;;;;;-141.23;100.00;62281.09;5049391;28;20052;-73
2022/10/10 01:04:32;;;;;;;2.75;2.05;;;;;;;-141.23;100.00;62281.09;5032535;28;20044;-72
2022/10/10 01:06:59;;;;;;;2.85;1.92;;;;;;;-141.23;100.00;62281.09;5016329;28;20135;-73
2022/10/10 01:09:26;;;;;;;5.40;1.80;;;;;;;-141.23;100.00;62281.09;5015482;28;20045;-73
2022/10/10 01:11:59;;;;;;;5.30;1.92;;;;;;;-141.23;100.00;62281.09;5048536;28;20299;-73
2022/10/10 01:14:49;;;;;;;5.32;2.00;;;;;;;-141.23;100.00;62281.09;5031715;28;20076;-72
2022/10/10 01:17:38;;;;;;;4.70;1.92;;;;;;;-141.23;100.00;62281.09;5033776;28;20053;-71
2022/10/10 01:20:22;;;;;;;6.03;2.50;;;;;;;-141.23;100.00;62281.09;5008131;28;20060;-72
2022/10/10 01:23:05;;;;;;;3.05;1.95;;;;;;;-141.23;100.00;62281.09;5049887;28;20053;-71
2022/10/10 01:25:39;;;;;;;6.38;2.22;;;;;;;-141.23;100.00;62281.09;5051867;28;20057;-71
2022/10/10 01:28:52;;;;;;;4.00;2.17;;;;;;;-141.23;100.00;62281.09;5036040;28;20044;-71
2022/10/10 01:31:22;;;;;;;3.83;2.10;;;;;;;-141.23;100.00;62281.09;4992144;28;20037;-72
2022/10/10 01:34:09;;;;;;;3.40;2.00;;;;;;;-141.23;100.00;62281.09;5052268;28;20095;-72
2022/10/10 01:36:46;;;;;;;4.78;1.80;;;;;;;-141.23;100.00;62281.09;5051910;28;20037;-73
2022/10/10 01:39:49;;;;;;;2.33;1.63;;;;;;;-141.23;100.00;62281.09;5035822;28;20036;-71
2022/10/10 01:42:19;;;;;;;6.25;1.90;;;;;;;-141.23;100.00;62281.09;5052885;28;20048;-71
2022/10/10 01:44:45;;;;;;;9.25;2.70;;;;;;;-141.23;100.00;62281.09;5054201;28;20044;-71
2022/10/10 01:47:12;;;;;;;3.65;2.08;;;;;;;-141.23;100.00;62281.09;5022169;28;20159;-71
2022/10/10 01:49:38;;;;;;;3.65;2.20;;;;;;;-141.23;100.00;62281.09;5054169;28;20482;-71
2022/10/10 01:52:10;;;;;;;7.18;2.40;;;;;;;-141.23;100.00;62281.09;5070757;28;20044;-71
2022/10/10 01:55:17;;;;;;;4.65;2.25;;;;;;;-141.23;100.00;62281.09;5054155;28;20131;-71
2022/10/10 01:57:46;;;;;;;2.67;1.90;;;;;;;-141.23;100.00;62281.09;4977583;28;20062;-71
2022/10/10 02:00:14;;;;;;;9.85;2.10;;;;;;;-141.23;100.00;62281.09;5063631;28;20521;-72
2022/10/10 02:02:59;;;;;;;4.72;2.17;;;;;;;-141.23;100.00;62281.09;5073993;28;20127;-72
2022/10/10 02:05:31;;;;;;;3.63;1.90;;;;;;;-141.23;100.00;62281.09;5057036;28;20540;-72
2022/10/10 02:07:59;;;;;;;5.80;2.08;;;;;;;-141.23;100.00;62281.09;5057271;28;20138;-72
2022/10/10 02:10:28;;;;;;;5.53;2.10;;;;;;;-141.23;100.00;62281.09;5040339;28;20047;-73
2022/10/10 02:12:55;;;;;;;2.67;2.00;;;;;;;-141.23;100.00;62281.09;5090465;28;20499;-74
2022/10/10 02:15:24;;;;;;;8.68;1.85;;;;;;;-141.23;100.00;62281.09;5090682;28;20079;-71
2022/10/10 02:17:51;;;;;;;4.88;2.20;;;;;;;-141.23;100.00;62281.09;5074084;28;20039;-72
2022/10/10 02:20:20;;;;;;;5.80;2.05;;;;;;;-141.23;100.00;62281.09;5074324;28;20048;-72
2022/10/10 02:22:46;;;;;;;4.13;1.90;;;;;;;-141.23;100.00;62281.09;5091422;28;20115;-71
2022/10/10 02:25:12;;;;;;;4.28;1.80;;;;;;;-141.23;100.00;62281.09;5090296;28;20048;-71
2022/10/10 02:27:42;;;;;;;3.03;1.83;;;;;;;-141.23;100.00;62281.09;5040616;28;20378;-71
2022/10/10 02:30:09;;;;;;;4.03;1.88;;;;;;;-141.23;100.00;62281.09;5073824;28;20048;-71
2022/10/10 02:32:42;;;;;;;4.75;1.90;;;;;;;-141.23;100.00;62281.09;5090203;28;20108;-71
2022/10/10 02:35:12;;;;;;;4.25;1.67;;;;;;;-141.23;100.00;62281.09;5056552;28;20043;-71
2022/10/10 02:37:38;;;;;;;5.40;2.03;;;;;;;-141.23;100.00;62281.09;5090225;28;20187;-71
2022/10/10 02:40:05;;;;;;;3.65;1.80;;;;;;;-141.23;100.00;62281.09;5057003;28;20058;-73
2022/10/10 02:42:34;;;;;;;4.07;1.73;;;;;;;-141.23;100.00;62281.09;5074597;28;20055;-73
2022/10/10 02:45:00;;;;;;;3.35;1.60;;;;;;;-141.23;100.00;62281.09;5057585;28;20043;-73
2022/10/10 02:47:26;;;;;;;4.93;2.15;;;;;;;-141.23;100.00;62281.09;5057486;28;20036;-72
2022/10/10 02:49:52;;;;;;;8.18;2.00;;;;;;;-141.23;100.00;62281.09;5040235;28;20051;-74
2022/10/10 02:52:18;;;;;;;4.70;1.90;;;;;;;-141.23;100.00;62281.09;5040212;28;20043;-72
2022/10/10 02:54:44;;;;;;;2.97;1.63;;;;;;;-141.23;100.00;62281.09;5056490;28;20418;-73
2022/10/10 02:57:10;;;;;;;3.58;1.70;;;;;;;-141.23;100.00;62281.09;5073526;28;20040;-73
2022/10/10 02:59:35;;;;;;;4.60;1.80;;;;;;;-141.23;100.00;62281.09;5077850;28;20066;-72
2022/10/10 03:02:01;;;;;;;4.45;1.60;;;;;;;-141.23;100.00;62281.09;5039312;28;20112;-71
2022/10/10 03:04:27;;;;;;;4.28;1.70;;;;;;;-141.23;100.00;62281.09;5069455;28;20143;-72
2022/10/10 03:06:55;;;;;;;3.67;1.60;;;;;;;-141.23;100.00;62281.09;5072765;28;20036;-72
2022/10/10 03:09:20;;;;;;;5.15;1.50;;;;;;;-141.23;100.00;62281.09;5091173;28;20048;-72
2022/10/10 03:11:46;;;;;;;5.60;1.65;;;;;;;-141.23;100.00;62281.09;5074212;28;20050;-72
2022/10/10 03:14:12;;;;;;;3.17;1.52;;;;;;;-141.23;100.00;62281.09;5056428;28;20075;-74
2022/10/10 03:16:38;;;;;;;4.47;1.60;;;;;;;-141.23;100.00;62281.09;5058117;28;20434;-73
2022/10/10 03:19:07;;;;;;;2.83;1.80;;;;;;;-141.23;100.00;62281.09;5039847;28;20036;-74
2022/10/10 03:21:34;;;;;;;4.35;1.58;;;;;;;-141.23;100.00;62281.09;5075141;28;20041;-73
2022/10/10 03:24:00;;;;;;;4.20;1.83;;;;;;;-141.23;100.00;62281.09;5056218;28;20110;-74
2022/10/10 03:26:26;;;;;;;7.15;1.88;;;;;;;-141.23;100.00;62281.09;5057079;28;20049;-74
2022/10/10 03:28:52;;;;;;;4.15;2.17;;;;;;;-141.23;100.00;62281.09;5094763;28;20131;-69
2022/10/10 03:31:17;;;;;;;3.45;1.90;;;;;;;-141.23;100.00;62281.09;5044168;28;20453;-71
2022/10/10 03:33:43;;;;;;;5.43;2.42;;;;;;;-141.23;100.00;62281.09;5040272;28;20043;-70
2022/10/10 03:36:09;;;;;;;3.63;1.90;;;;;;;-141.23;100.00;62281.09;5059384;28;20062;-71
2022/10/10 03:38:35;;;;;;;3.70;2.22;;;;;;;-141.23;100.00;62281.09;5058743;28;20036;-72
2022/10/10 03:41:01;;;;;;;3.33;1.92;;;;;;;-141.23;100.00;62281.09;5063367;28;20040;-73
2022/10/10 03:43:27;;;;;;;6.43;2.08;;;;;;;-141.23;100.00;62281.09;5061880;28;20048;-72
2022/10/10 03:45:52;;;;;;;3.85;1.90;;;;;;;-141.23;100.00;62281.09;5061996;28;20047;-76
2022/10/10 03:48:18;;;;;;;5.78;1.92;;;;;;;-141.23;100.00;62281.09;5061613;28;20040;-75
2022/10/10 03:50:44;;;;;;;4.40;1.70;;;;;;;-141.23;100.00;62281.09;5045783;28;20044;-73
2022/10/10 03:53:10;;;;;;;5.47;2.95;;;;;;;-141.23;100.00;62281.09;5039091;28;20040;-73
2022/10/10 03:55:39;;;;;;;7.30;2.00;;;;;;;-141.23;100.00;62281.09;5089311;28;20052;-73
2022/10/10 03:58:05;;;;;;;3.83;1.75;;;;;;;-141.23;100.00;62281.09;5072775;28;20040;-73
2022/10/10 04:00:30;;;;;;;4.07;1.88;;;;;;;-141.23;100.00;62281.09;5039236;28;20044;-73
2022/10/10 04:02:56;;;;;;;6.03;1.65;;;;;;;-141.23;100.00;62281.09;5022650;28;20044;-72
2022/10/10 04:05:22;;;;;;;3.95;1.58;;;;;;;-141.23;100.00;62281.09;5022964;28;20040;-74
2022/10/10 04:07:48;;;;;;;4.82;1.77;;;;;;;-141.23;100.00;62281.09;5040820;28;20538;-74
2022/10/10 04:10:13;;;;;;;3.35;1.48;;;;;;;-141.23;100.00;62281.09;5026781;28;20048;-72
2022/10/10 04:12:39;;;;;;;4.43;1.75;;;;;;;-141.23;100.00;62281.09;5060976;28;20028;-74
2022/10/10 04:15:07;;;;;;;5.95;2.03;;;;;;;-141.23;100.00;62281.09;5041972;28;20051;-73
2022/10/10 04:17:32;;;;;;;9.52;1.65;;;;;;;-141.23;100.00;62281.09;5093543;28;20489;-73
2022/10/10 04:19:58;;;;;;;4.85;1.85;;;;;;;-141.23;100.00;62281.09;5058989;28;20133;-69
2022/10/10 04:22:24;;;;;;;5.65;1.88;;;;;;;-141.23;100.00;62281.09;5058784;28;20220;-70
2022/10/10 04:24:49;;;;;;;5.57;1.60;;;;;;;-141.23;100.00;62281.09;5075264;28;20418;-69
2022/10/10 04:27:15;;;;;;;4.95;1.80;;;;;;;-141.23;100.00;62281.09;5075761;28;20044;-69
2022/10/10 04:29:41;;;;;;;6.03;1.92;;;;;;;-141.23;100.00;62281.09;5059146;28;20047;-69
2022/10/10 04:32:07;;;;;;;2.67;1.90;;;;;;;-141.23;100.00;62281.09;5058660;28;20455;-68
2022/10/10 04:34:33;;;;;;;3.35;1.65;;;;;;;-141.23;100.00;62281.09;5092638;28;20041;-73
2022/10/10 04:36:58;;;;;;;3.42;1.73;;;;;;;-141.23;100.00;62281.09;5059066;28;20040;-71
2022/10/10 04:39:24;;;;;;;3.88;1.73;;;;;;;-141.23;100.00;62281.09;5092809;28;20051;-71
2022/10/10 04:41:50;;;;;;;4.28;1.75;;;;;;;-141.23;100.00;62281.09;5075821;28;20059;-70
2022/10/10 04:44:16;;;;;;;7.80;1.85;;;;;;;-141.23;100.00;62281.09;5058605;28;20179;-72
2022/10/10 04:46:42;;;;;;;6.10;1.60;;;;;;;-141.23;100.00;62281.09;5075500;28;20047;-71
2022/10/10 04:49:08;;;;;;;6.05;1.70;;;;;;;-141.23;100.00;62281.09;5092279;28;20036;-71
2022/10/10 04:51:34;;;;;;;7.07;2.00;;;;;;;-141.23;100.00;62281.09;5041894;28;20055;-71
2022/10/10 04:53:59;;;;;;;7.10;1.75;;;;;;;-141.23;100.00;62281.09;5041883;28;20072;-71
2022/10/10 04:56:26;;;;;;;5.20;1.50;;;;;;;-141.23;100.00;62281.09;5042140;28;20044;-70
2022/10/10 04:58:53;;;;;;;4.07;1.40;;;;;;;-141.23;100.00;62281.09;5075878;28;20551;-68
2022/10/10 05:01:18;;;;;;;12.38;1.75;;;;;;;-141.23;100.00;62281.09;5075518;28;20047;-70
2022/10/10 05:03:44;;;;;;;2.75;1.40;;;;;;;-141.23;100.00;62281.09;5056657;28;20036;-71
2022/10/10 05:06:10;;;;;;;5.72;1.58;;;;;;;-141.23;100.00;62281.09;5074684;28;20047;-71
2022/10/10 05:08:36;;;;;;;4.20;1.77;;;;;;;-141.23;100.00;62281.09;5074867;28;20036;-72
2022/10/10 05:11:01;;;;;;;4.80;1.55;;;;;;;-141.23;100.00;62281.09;5052839;28;20070;-71
2022/10/10 05:13:30;;;;;;;4.28;1.73;;;;;;;-141.23;100.00;62281.09;5069322;28;20189;-72
2022/10/10 05:15:56;;;;;;;4.20;1.63;;;;;;;-141.23;100.00;62281.09;5055904;28;20045;-74
2022/10/10 05:18:21;;;;;;;3.20;2.10;;;;;;;-141.23;100.00;62281.09;5058622;28;20048;-71
2022/10/10 05:20:47;;;;;;;4.60;1.50;;;;;;;-141.23;100.00;62281.09;5053329;28;20102;-72
2022/10/10 05:23:14;;;;;;;5.30;1.70;;;;;;;-141.23;100.00;62281.09;5038507;28;20397;-77
2022/10/10 05:25:43;;;;;;;6.82;2.00;;;;;;;-141.23;100.00;62281.09;5091860;28;20051;-79
2022/10/10 05:28:08;;;;;;;11.30;2.90;;;;;;;-141.23;100.00;62281.09;5041821;28;20055;-78
2022/10/10 05:30:57;;;;;;;7.00;2.40;;;;;;;-141.23;100.00;62281.09;5076583;28;20047;-78
2022/10/10 05:33:25;;;;;;;3.17;1.80;;;;;;;-141.23;100.00;62281.09;5081170;28;20131;-80
2022/10/10 05:35:50;;;;;;;4.45;1.80;;;;;;;-141.23;100.00;62281.09;5078102;28;20518;-77
2022/10/10 05:38:16;;;;;;;5.43;2.15;;;;;;;-141.23;100.00;62281.09;5045662;28;20142;-81
2022/10/10 05:40:42;;;;;;;7.20;1.80;;;;;;;-141.23;100.00;62281.09;5062036;28;20051;-82
2022/10/10 05:43:08;;;;;;;2.70;1.85;;;;;;;-141.23;100.00;62281.09;5060868;28;20676;-82
2022/10/10 05:45:35;;;;;;;7.25;2.10;;;;;;;-141.23;100.00;62281.09;5057320;28;20040;-79
2022/10/10 05:48:00;;;;;;;3.05;2.00;;;;;;;-141.23;100.00;62281.09;5057747;28;20044;-76
2022/10/10 05:50:33;;;;;;;4.35;2.13;;;;;;;-141.23;100.00;62281.09;5059607;28;20054;-81
2022/10/10 05:53:00;;;;;;;5.63;2.00;;;;;;;-141.23;100.00;62281.09;5076274;28;20071;-82
2022/10/10 05:55:31;;;;;;;5.55;2.20;;;;;;;-141.23;100.00;62281.09;5092792;28;20040;-83
2022/10/10 05:57:56;;;;;;;4.45;2.10;;;;;;;-141.23;100.00;62281.09;5093926;28;20135;-81
2022/10/10 06:00:23;;;;;;;7.97;2.45;;;;;;;-141.23;100.00;62281.09;5041533;28;20131;-80
2022/10/10 06:02:49;;;;;;;3.67;2.35;;;;;;;-141.23;100.00;62281.09;5040842;28;20039;-81
2022/10/10 06:05:16;;;;;;;3.83;2.30;;;;;;;-141.23;100.00;62281.09;5041054;28;20917;-81
2022/10/10 06:07:42;;;;;;;5.05;2.58;;;;;;;-141.23;100.00;62281.09;5077100;28;20453;-82
2022/10/10 06:10:08;;;;;;;4.32;2.28;;;;;;;-141.23;100.00;62281.09;5044380;28;20036;-80
2022/10/10 06:12:34;;;;;;;5.45;2.30;;;;;;;-141.23;100.00;62281.09;5043945;28;20039;-83
2022/10/10 06:15:01;;;;;;;4.00;2.22;;;;;;;-141.23;100.00;62281.09;5062526;28;20127;-83
2022/10/10 06:17:27;;;;;;;7.07;2.45;;;;;;;-141.23;100.00;62281.09;5050699;28;20040;-79
2022/10/10 06:19:53;;;;;;;7.38;2.40;;;;;;;-141.23;100.00;62281.09;5042669;28;20059;-83
2022/10/10 06:22:18;;;;;;;3.13;1.95;;;;;;;-141.23;100.00;62281.09;5041646;28;20059;-82
2022/10/10 06:24:45;;;;;;;4.97;1.98;;;;;;;-141.23;100.00;62281.09;5058657;28;20059;-82
2022/10/10 06:27:11;;;;;;;4.68;2.08;;;;;;;-141.23;100.00;62281.09;5026372;28;20036;-81
2022/10/10 06:29:37;;;;;;;5.15;2.00;;;;;;;-141.23;100.00;62281.09;5043070;28;20124;-79
2022/10/10 06:32:03;;;;;;;8.30;2.40;;;;;;;-141.23;100.00;62281.09;5041205;28;20478;-81
2022/10/10 06:34:28;;;;;;;4.25;2.20;;;;;;;-141.23;100.00;62281.09;5040312;28;20040;-81
2022/10/10 06:36:56;;;;;;;6.68;2.28;;;;;;;-141.23;100.00;62281.09;5041513;28;20065;-77
2022/10/10 06:39:23;;;;;;;6.60;2.30;;;;;;;-141.23;100.00;62281.09;5057045;28;20032;-77
2022/10/10 06:41:49;;;;;;;7.68;2.50;;;;;;;-141.23;100.00;62281.09;5040373;28;20109;-77
2022/10/10 06:44:17;;;;;;;4.70;2.25;;;;;;;-141.23;100.00;62281.09;5040903;28;20472;-77
2022/10/10 06:46:43;;;;;;;5.00;2.35;;;;;;;-141.23;100.00;62281.09;5039606;28;20055;-79
2022/10/10 06:49:09;;;;;;;7.15;2.72;;;;;;;-141.23;100.00;62281.09;5025124;28;20124;-78
2022/10/10 06:51:39;;;;;;;5.72;2.03;;;;;;;-141.23;100.00;62281.09;5090601;28;20058;-78
2022/10/10 06:54:10;;;;;;;5.47;2.10;;;;;;;-141.23;100.00;62281.09;5023671;28;20478;-77
2022/10/10 06:56:37;;;;;;;9.43;2.15;;;;;;;-141.23;100.00;62281.09;5050235;28;20047;-77
2022/10/10 06:59:04;;;;;;;8.75;2.10;;;;;;;-141.23;100.00;62281.09;5033004;28;20044;-75
2022/10/10 07:01:30;;;;;;;7.22;2.30;;;;;;;-141.23;100.00;62281.09;5048046;28;20036;-79
2022/10/10 07:03:55;;;;;;;5.80;1.83;;;;;;;-141.23;100.00;62281.09;5049773;28;20040;-76
2022/10/10 07:06:21;;;;;;;6.20;2.22;;;;;;;-141.23;100.00;62281.09;5053256;28;20043;-76
2022/10/10 07:08:48;;;;;;;5.50;2.50;;;;;;;-141.23;100.00;62281.09;5050469;28;20062;-81
2022/10/10 07:11:14;;;;;;;6.10;2.25;;;;;;;-141.23;100.00;62281.09;5030133;28;20538;-80
2022/10/10 07:13:40;;;;;;;14.35;2.30;;;;;;;-141.23;100.00;62281.09;5044471;28;20040;-81
2022/10/10 07:16:06;;;;;;;11.38;1.90;;;;;;;-141.23;100.00;62281.09;5046095;28;20048;-80
2022/10/10 07:18:35;;;;;;;8.95;1.73;;;;;;;-141.23;100.00;62281.09;5062970;28;20124;-79
2022/10/10 07:21:04;;;;;;;6.53;1.67;;;;;;;-141.23;100.00;62281.09;5061624;28;20139;-80
2022/10/10 07:23:31;;;;;;;7.05;1.90;;;;;;;-141.23;100.00;62281.09;5044497;28;20040;-79
2022/10/10 07:26:07;;;;;;;3.25;1.45;;;;;;;-141.23;100.00;62281.09;5078670;28;20130;-79
2022/10/10 07:28:33;;;;;;;5.82;1.73;;;;;;;-141.23;100.00;62281.09;5061324;28;20044;-82
2022/10/10 07:31:01;;;;;;;7.85;1.60;;;;;;;-141.23;100.00;62281.09;5094637;28;20044;-81
2022/10/10 07:33:38;;;;;;;9.73;1.67;;;;;;;-141.23;100.00;62281.09;5061014;28;20044;-80
2022/10/10 07:36:04;;;;;;;5.82;1.52;;;;;;;-141.23;100.00;62281.09;5078000;28;20043;-84
2022/10/10 07:38:31;;;;;;;9.88;1.75;;;;;;;-141.23;100.00;62281.09;5062108;28;20075;-81
2022/10/10 07:40:56;;;;;;;5.03;1.75;;;;;;;-141.23;100.00;62281.09;5045383;28;20043;-81
2022/10/10 07:43:22;;;;;;;7.07;1.67;;;;;;;-141.23;100.00;62281.09;5028918;28;20052;-84
2022/10/10 07:45:52;;;;;;;5.72;1.80;;;;;;;-141.23;100.00;62281.09;5029799;28;20044;-82
2022/10/10 07:48:19;;;;;;;5.60;1.58;;;;;;;-141.23;100.00;62281.09;5043963;28;20093;-84
2022/10/10 07:50:47;;;;;;;7.15;1.75;;;;;;;-141.23;100.00;62281.09;5043225;28;20036;-81
2022/10/10 07:53:13;;;;;;;6.72;1.65;;;;;;;-141.23;100.00;62281.09;5042686;28;20078;-81
2022/10/10 07:55:43;;;;;;;6.13;1.70;;;;;;;-141.23;100.00;62281.09;5026314;28;20458;-82
2022/10/10 07:58:10;;;;;;;4.22;1.70;;;;;;;-141.23;100.00;62281.09;5070108;28;20036;-83
2022/10/10 08:00:40;;;;;;;7.75;1.90;;;;;;;-141.23;100.00;62281.09;5030131;28;20044;-84
2022/10/10 08:03:08;;;;;;;6.90;1.60;;;;;;;-141.23;100.00;62281.09;5079925;28;20135;-83
2022/10/10 08:05:39;;;;;;;5.82;1.60;;;;;;;-141.23;100.00;62281.09;5081725;28;20054;-84
2022/10/10 08:08:06;;;;;;;5.40;1.50;;;;;;;-141.23;100.00;62281.09;5079171;28;20127;-84
2022/10/10 08:10:32;;;;;;;5.43;1.77;;;;;;;-141.23;100.00;62281.09;5028202;28;20123;-84
2022/10/10 08:12:58;;;;;;;6.70;1.90;;;;;;;-141.23;100.00;62281.09;5027444;28;20048;-82
2022/10/10 08:15:25;;;;;;;9.52;1.80;;;;;;;-141.23;100.00;62281.09;5062822;28;20063;-83
2022/10/10 08:17:50;;;;;;;7.70;1.60;;;;;;;-141.23;100.00;62281.09;5030442;28;20036;-81
2022/10/10 08:20:18;;;;;;;8.82;1.50;;;;;;;-141.23;100.00;62281.09;5062779;28;20051;-82
2022/10/10 08:22:43;;;;;;;3.53;1.42;;;;;;;-141.23;100.00;62281.09;5030416;28;20036;-80
2022/10/10 08:25:09;;;;;;;8.23;1.58;;;;;;;-141.23;100.00;62281.09;5027684;28;20095;-79
2022/10/10 08:27:37;;;;;;;6.43;1.50;;;;;;;-141.23;100.00;62281.09;5060989;28;20048;-81
2022/10/10 08:30:05;;;;;;;12.00;1.75;;;;;;;-141.23;100.00;62281.09;5094454;28;20131;-78
2022/10/10 08:32:30;;;;;;;7.30;1.67;;;;;;;-141.23;100.00;62281.09;5043096;28;20470;-82
2022/10/10 08:34:58;;;;;;;8.57;1.40;;;;;;;-141.23;100.00;62281.09;5060420;28;20047;-82
2022/10/10 08:37:24;;;;;;;5.70;1.50;;;;;;;-141.23;100.00;62281.09;5079117;28;20048;-78
2022/10/10 08:39:53;;;;;;;8.43;1.50;;;;;;;-141.23;100.00;62281.09;5062823;28;20467;-80
2022/10/10 08:42:45;;;;;;;2.47;1.27;;;;;;;-141.23;100.00;62281.09;5062124;28;20128;-83
2022/10/10 08:45:24;;;;;;;6.50;1.63;;;;;;;-141.23;100.00;62281.09;5080905;28;20048;-82
2022/10/10 08:48:09;;;;;;;2.08;1.25;;;;;;;-141.23;100.00;62281.09;5062511;28;20050;-81
2022/10/10 08:50:45;;;;;;;6.63;1.45;;;;;;;-141.23;100.00;62281.09;5113502;28;20134;-79
2022/10/10 08:53:26;;;;;;;5.03;1.58;;;;;;;-141.23;100.00;62281.09;5095315;28;20039;-79
2022/10/10 08:55:57;;;;;;;5.45;1.65;;;;;;;-141.23;100.00;62281.09;5081429;28;20382;-79
2022/10/10 08:58:30;;;;;;;3.15;1.17;;;;;;;-141.23;100.00;62281.09;5047500;28;20051;-81
2022/10/10 09:01:05;;;;;;;4.30;1.30;;;;;;;-141.23;100.00;62281.09;5046701;28;20522;-81
2022/10/10 09:03:47;;;;;;;3.20;1.30;;;;;;;-141.23;100.00;62281.09;5059246;28;20079;-80
2022/10/10 09:06:27;;;;;;;5.47;1.52;;;;;;;-141.23;100.00;62281.09;5058566;28;20066;-77
2022/10/10 09:09:30;;;;;;;7.20;1.33;;;;;;;-141.23;100.00;62281.09;5075169;28;20040;-82
2022/10/10 09:12:10;;;;;;;4.75;1.25;;;;;;;-141.23;100.00;62281.09;5059796;28;20070;-81
2022/10/10 09:15:04;;;;;;;3.53;1.13;;;;;;;-141.23;100.00;62281.09;5092610;28;20059;-77
2022/10/10 09:17:40;;;;;;;8.27;1.40;;;;;;;-141.23;100.00;62281.09;5041199;28;20055;-82
2022/10/10 09:20:31;;;;;;;3.65;1.10;;;;;;;-141.23;100.00;62281.09;5058348;28;20458;-80
2022/10/10 09:23:04;;;;;;;3.97;0.90;;;;;;;-141.23;100.00;62281.09;5075026;28;20371;-80
2022/10/10 09:25:56;;;;;;;4.50;1.13;;;;;;;-141.23;100.00;62281.09;5057802;28;20085;-79
2022/10/10 09:28:45;;;;;;;6.90;1.25;;;;;;;-141.23;100.00;62281.09;5049737;28;20044;-76
2022/10/10 09:31:18;;;;;;;3.08;1.33;;;;;;;-141.23;100.00;62281.09;5058171;28;20052;-78
2022/10/10 09:33:50;;;;;;;2.00;1.17;;;;;;;-141.23;100.00;62281.09;5074454;28;20048;-78
2022/10/10 09:36:20;;;;;;;6.68;3.10;;;;;;;-141.23;100.00;62281.09;5093034;28;20395;-81
2022/10/10 09:38:50;;;;;;;5.60;1.35;;;;;;;-141.23;100.00;62281.09;5058852;28;20112;-79
2022/10/10 09:41:24;;;;;;;5.65;1.42;;;;;;;-141.23;100.00;62281.09;5057762;28;20385;-77
2022/10/10 09:43:55;;;;;;;4.63;1.23;;;;;;;-141.23;100.00;62281.09;5057257;28;20140;-76
2022/10/10 09:46:23;;;;;;;5.43;1.00;;;;;;;-141.23;100.00;62281.09;5024349;28;20063;-78
2022/10/10 09:48:51;;;;;;;5.85;1.23;;;;;;;-141.23;100.00;62281.09;5041038;28;20039;-80
2022/10/10 09:51:18;;;;;;;5.25;1.20;;;;;;;-141.23;100.00;62281.09;5058751;28;20035;-83
2022/10/10 09:53:47;;;;;;;3.03;1.25;;;;;;;-141.23;100.00;62281.09;5042039;28;20477;-80
2022/10/10 09:56:22;;;;;;;5.50;1.30;;;;;;;-141.23;100.00;62281.09;5042445;28;20040;-82
2022/10/10 09:58:54;;;;;;;10.45;1.45;;;;;;;-141.23;100.00;62281.09;5058491;28;20059;-80
2022/10/10 10:01:31;;;;;;;4.28;1.10;;;;;;;-141.23;100.00;62281.09;5058298;28;20130;-83
2022/10/10 10:04:12;;;;;;;4.40;1.33;;;;;;;-141.23;100.00;62281.09;5058965;28;20071;-81
2022/10/10 10:06:43;;;;;;;3.17;1.30;;;;;;;-141.23;100.00;62281.09;5058114;28;20139;-81
2022/10/10 10:09:15;;;;;;;4.05;1.20;;;;;;;-141.23;100.00;62281.09;5057373;28;20126;-84
2022/10/10 10:11:41;;;;;;;4.28;0.90;;;;;;;-141.23;100.00;62281.09;5073220;28;20135;-82
2022/10/10 10:14:24;;;;;;;3.42;1.10;;;;;;;-141.23;100.00;62281.09;5040672;28;20131;-84
2022/10/10 10:16:51;;;;;;;3.03;0.93;;;;;;;-141.23;100.00;62281.09;5057692;28;20739;-82
2022/10/10 10:19:31;;;;;;;1.02;0.77;;;;;;;-141.23;100.00;62281.09;5043838;28;20286;-81
2022/10/10 10:22:00;;;;;;;3.28;1.10;;;;;;;-141.23;100.00;62281.09;5082075;28;20060;-79
2022/10/10 10:24:35;;;;;;;3.80;1.10;;;;;;;-141.23;100.00;62281.09;5027162;28;20053;-80
2022/10/10 10:27:09;;;;;;;2.20;0.88;;;;;;;-141.23;100.00;62281.09;5029921;28;20052;-82
2022/10/10 10:29:48;;;;;;;;;;;;;;;;;;;;;
2022/10/10 10:32:50;;;;;;;4.97;1.15;;;;;;;-141.23;100.00;62281.09;5057451;28;20041;-82
2022/10/10 10:35:48;;;;;;;9.07;1.25;;;;;;;-141.23;100.00;62281.09;5024792;28;20071;-79
2022/10/10 10:38:18;;;;;;;3.97;0.95;;;;;;;-141.23;100.00;62281.09;5045140;28;20087;-80
2022/10/10 10:41:18;;;;;;;2.35;1.10;;;;;;;-141.23;100.00;62281.09;5021282;28;20045;-80
2022/10/10 10:44:08;;;;;;;14.32;1.40;;;;;;;-141.23;100.00;62281.09;5019407;28;20051;-81
2022/10/10 10:47:06;;;;;;;5.10;1.00;;;;;;;-141.23;100.00;62281.09;5056232;28;20059;-79
2022/10/10 10:49:58;;;;;;;5.53;1.00;;;;;;;-141.23;100.00;62281.09;5014448;28;20040;-80
2022/10/10 10:52:40;;;;;;;2.35;1.10;;;;;;;-141.23;100.00;62281.09;5075718;28;20045;-80
2022/10/10 10:55:26;;;;;;;3.58;1.20;;;;;;;-141.23;100.00;62281.09;5099691;28;20052;-80
2022/10/10 10:58:01;;;;;;;4.93;1.10;;;;;;;-141.23;100.00;62281.09;5070156;28;20111;-79
2022/10/10 11:00:32;;;;;;;4.85;1.40;;;;;;;-141.23;100.00;62281.09;5082806;28;20055;-75
2022/10/10 11:03:19;;;;;;;4.85;1.13;;;;;;;-141.23;100.00;62281.09;5071743;28;20075;-79
2022/10/10 11:06:02;;;;;;;2.50;1.20;;;;;;;-141.23;100.00;62281.09;5085920;28;20395;-80
2022/10/10 11:08:45;;;;;;;5.13;1.30;;;;;;;-141.23;100.00;62281.09;5061568;28;20097;-80
2022/10/10 11:11:51;;;;;;;4.05;1.30;;;;;;;-141.23;100.00;62281.09;5068032;28;20044;-80
2022/10/10 11:14:50;;;;;;;5.93;1.33;;;;;;;-141.23;100.00;62281.09;5075109;28;20052;-79
2022/10/10 11:17:25;;;;;;;3.00;1.10;;;;;;;-141.23;100.00;62281.09;5074149;28;20036;-78
2022/10/10 11:19:58;;;;;;;4.82;1.10;;;;;;;-141.23;100.00;62281.09;5057038;28;20044;-79
2022/10/10 11:23:07;;;;;;;1.88;1.13;;;;;;;-141.23;100.00;62281.09;5041912;28;20397;-81
2022/10/10 11:25:43;;;;;;;4.93;1.23;;;;;;;-141.23;100.00;62281.09;5049934;28;20056;-82